createdAt,value
2022-11-18T00:02:31.501Z,100.00
2022-11-18T00:09:02.575Z,100.00
2022-11-18T00:10:07.983Z,100.00
2022-11-18T00:11:15.021Z,100.00
2022-11-18T00:12:20.641Z,100.00
2022-11-18T00:13:24.666Z,100.00
2022-11-18T00:14:28.660Z,100.00
2022-11-18T00:15:33.869Z,100.00
2022-11-18T00:16:37.925Z,100.00
2022-11-18T00:17:49.411Z,100.00
2022-11-18T00:18:53.522Z,100.00
2022-11-18T00:19:59.114Z,100.00
2022-11-18T00:21:04.297Z,100.00
2022-11-18T00:22:12.477Z,100.00
2022-11-18T00:23:16.417Z,100.00
2022-11-18T00:24:21.256Z,100.00
2022-11-18T00:25:28.764Z,100.00
2022-11-18T00:26:35.577Z,100.00
2022-11-18T00:27:55.050Z,100.00
2022-11-18T00:28:50.609Z,100.00
2022-11-18T00:30:10.140Z,100.00
2022-11-18T00:31:07.995Z,100.00
2022-11-18T00:32:28.002Z,100.00
2022-11-18T00:33:34.356Z,99.98
2022-11-18T00:34:30.889Z,99.70
2022-11-18T00:35:36.564Z,99.47
2022-11-18T00:36:43.188Z,98.81
2022-11-18T00:37:48.957Z,99.22
2022-11-18T00:38:53.115Z,99.56
2022-11-18T00:39:57.246Z,99.83
2022-11-18T00:41:07.257Z,99.59
2022-11-18T00:42:14.359Z,99.59
2022-11-18T00:43:21.569Z,98.69
2022-11-18T00:44:27.595Z,98.72
2022-11-18T00:46:45.355Z,98.94
2022-11-18T00:47:55.279Z,98.69
2022-11-18T00:48:59.845Z,98.20
2022-11-18T00:50:05.534Z,98.10
2022-11-18T00:51:20.138Z,98.10
2022-11-18T00:52:27.743Z,98.07
2022-11-18T00:55:07.585Z,97.92
2022-11-18T00:56:16.015Z,97.64
2022-11-18T00:57:23.693Z,97.52
2022-11-18T00:58:34.655Z,97.68
2022-11-18T00:59:38.877Z,97.37
2022-11-18T01:00:48.406Z,97.52
2022-11-18T01:01:56.142Z,98.09
2022-11-18T01:03:16.983Z,97.79
2022-11-18T01:04:13.584Z,97.46
2022-11-18T01:05:32.085Z,97.26
2022-11-18T01:06:33.057Z,97.24
2022-11-18T01:07:37.293Z,96.92
2022-11-18T01:08:41.498Z,97.40
2022-11-18T01:09:49.949Z,97.36
2022-11-18T01:12:05.970Z,97.25
2022-11-18T01:13:20.360Z,97.14
2022-11-18T01:15:33.050Z,97.62
2022-11-18T01:15:56.994Z,97.65
2022-11-18T01:18:42.555Z,96.28
2022-11-18T01:19:40.879Z,96.30
2022-11-18T01:20:48.782Z,96.33
2022-11-18T01:21:53.317Z,96.52
2022-11-18T01:22:57.347Z,96.28
2022-11-18T01:24:03.169Z,95.54
2022-11-18T01:25:07.909Z,95.54
2022-11-18T01:26:18.325Z,95.28
2022-11-18T01:27:25.692Z,95.06
2022-11-18T01:28:31.178Z,95.89
2022-11-18T01:29:41.310Z,95.27
2022-11-18T01:30:46.397Z,95.27
2022-11-18T01:32:22.737Z,94.51
2022-11-18T01:33:09.347Z,94.38
2022-11-18T01:34:15.699Z,94.28
2022-11-18T01:35:24.132Z,94.28
2022-11-18T01:36:29.970Z,93.95
2022-11-18T01:37:34.279Z,93.95
2022-11-18T01:38:38.717Z,93.83
2022-11-18T01:39:44.167Z,93.54
2022-11-18T01:40:48.398Z,93.58
2022-11-18T01:41:55.680Z,93.25
2022-11-18T01:43:03.792Z,93.08
2022-11-18T01:44:51.618Z,92.69
2022-11-18T01:45:58.957Z,92.69
2022-11-18T01:47:04.859Z,93.17
2022-11-18T01:48:12.171Z,92.79
2022-11-18T01:49:20.493Z,93.27
2022-11-18T01:50:34.744Z,94.27
2022-11-18T01:51:44.514Z,94.79
2022-11-18T01:52:53.140Z,95.30
2022-11-18T02:09:26.075Z,95.06
2022-11-18T02:10:26.817Z,95.06
2022-11-18T02:11:34.090Z,93.63
2022-11-18T02:13:40.448Z,93.63
2022-11-18T02:13:47.523Z,91.25
2022-11-18T02:14:52.207Z,91.07
2022-11-18T02:16:13.960Z,91.07
2022-11-18T02:17:32.618Z,90.23
2022-11-18T02:18:48.482Z,90.50
2022-11-18T02:20:01.444Z,90.56
2022-11-18T02:21:23.355Z,90.99
2022-11-18T02:22:49.515Z,91.54
2022-11-18T02:24:14.570Z,91.75
2022-11-18T02:25:37.849Z,92.08
2022-11-18T02:27:04.498Z,91.97
2022-11-18T02:28:16.059Z,91.97
2022-11-18T02:29:29.106Z,92.22
2022-11-18T02:30:44.250Z,92.35
2022-11-18T02:32:03.605Z,92.34
2022-11-18T02:33:15.207Z,93.01
2022-11-18T02:34:46.059Z,93.21
2022-11-18T02:37:16.160Z,93.57
2022-11-18T02:38:36.462Z,92.22
2022-11-18T02:39:15.367Z,93.21
2022-11-18T02:39:46.537Z,92.02
2022-11-18T02:40:56.601Z,92.46
2022-11-18T02:42:03.819Z,92.51
2022-11-18T02:43:11.012Z,92.10
2022-11-18T02:44:18.108Z,91.53
2022-11-18T02:45:24.683Z,92.13
2022-11-18T02:46:32.036Z,92.34
2022-11-18T02:47:50.177Z,92.23
2022-11-18T02:48:52.605Z,91.67
2022-11-18T02:50:02.255Z,91.19
2022-11-18T02:51:10.835Z,91.41
2022-11-18T02:52:16.865Z,91.30
2022-11-18T02:53:21.820Z,91.48
2022-11-18T02:54:30.444Z,91.71
2022-11-18T02:55:42.795Z,91.48
2022-11-18T02:56:51.915Z,91.12
2022-11-18T02:57:57.727Z,91.49
2022-11-18T02:59:02.713Z,92.03
2022-11-18T03:00:08.752Z,92.27
2022-11-18T03:01:26.731Z,91.62
2022-11-18T03:03:41.888Z,91.46
2022-11-18T03:06:25.436Z,92.26
2022-11-18T03:07:32.663Z,91.67
2022-11-18T03:09:37.837Z,91.67
2022-11-18T03:10:01.336Z,92.17
2022-11-18T03:11:24.066Z,92.49
2022-11-18T03:12:50.184Z,92.42
2022-11-18T03:14:09.308Z,92.61
2022-11-18T03:15:35.640Z,92.49
2022-11-18T03:16:48.954Z,92.70
2022-11-18T03:18:04.877Z,92.70
2022-11-18T03:19:11.830Z,93.21
2022-11-18T03:20:35.992Z,93.65
2022-11-18T03:21:48.359Z,92.42
2022-11-18T03:23:02.685Z,92.15
2022-11-18T03:24:14.162Z,92.69
2022-11-18T03:25:24.743Z,92.60
2022-11-18T03:26:31.629Z,92.55
2022-11-18T03:27:50.836Z,93.23
2022-11-18T03:28:58.048Z,93.14
2022-11-18T03:30:05.069Z,92.79
2022-11-18T03:31:14.466Z,92.09
2022-11-18T03:32:36.442Z,91.29
2022-11-18T03:33:41.087Z,91.40
2022-11-18T03:34:48.704Z,90.61
2022-11-18T03:35:55.018Z,90.67
2022-11-18T03:37:09.066Z,90.94
2022-11-18T03:38:15.346Z,91.06
2022-11-18T03:39:25.925Z,91.25
2022-11-18T03:40:32.896Z,90.89
2022-11-18T03:41:40.158Z,90.89
2022-11-18T03:42:48.625Z,90.81
2022-11-18T03:45:14.227Z,90.52
2022-11-18T03:46:11.164Z,90.55
2022-11-18T03:46:23.977Z,90.23
2022-11-18T03:47:40.489Z,90.23
2022-11-18T03:48:56.433Z,90.04
2022-11-18T03:50:11.104Z,90.03
2022-11-18T03:51:16.986Z,90.42
2022-11-18T03:52:28.031Z,90.53
2022-11-18T03:53:40.249Z,90.53
2022-11-18T03:54:51.277Z,90.79
2022-11-18T03:56:25.756Z,90.69
2022-11-18T03:57:11.493Z,91.13
2022-11-18T03:58:27.414Z,91.13
2022-11-18T03:59:48.956Z,90.34
2022-11-18T04:00:50.494Z,90.97
2022-11-18T04:01:57.776Z,90.37
2022-11-18T04:03:08.644Z,90.64
2022-11-18T04:04:11.626Z,90.45
2022-11-18T04:05:20.049Z,90.76
2022-11-18T04:06:35.152Z,89.92
2022-11-18T04:08:03.047Z,91.03
2022-11-18T04:09:38.608Z,91.03
2022-11-18T04:10:30.000Z,91.09
2022-11-18T04:11:38.927Z,90.45
2022-11-18T04:12:53.246Z,90.45
2022-11-18T04:14:02.875Z,87.77
2022-11-18T04:15:07.440Z,87.28
2022-11-18T04:16:13.221Z,87.28
2022-11-18T04:17:21.416Z,87.91
2022-11-18T04:18:27.071Z,88.13
2022-11-18T04:19:59.068Z,88.06
2022-11-18T04:20:47.818Z,87.29
2022-11-18T04:21:54.867Z,86.83
2022-11-18T04:22:56.005Z,87.04
2022-11-18T04:24:00.373Z,87.04
2022-11-18T04:25:04.693Z,87.23
2022-11-18T04:26:11.518Z,87.43
2022-11-18T04:27:19.348Z,88.35
2022-11-18T04:28:29.941Z,87.94
2022-11-18T04:29:33.294Z,88.23
2022-11-18T04:31:10.327Z,88.23
2022-11-18T04:32:00.094Z,86.89
2022-11-18T04:33:12.560Z,84.75
2022-11-18T04:34:17.094Z,84.32
2022-11-18T04:35:22.792Z,85.44
2022-11-18T04:36:30.874Z,85.15
2022-11-18T04:37:40.515Z,84.33
2022-11-18T04:38:45.426Z,83.97
2022-11-18T04:39:52.463Z,84.43
2022-11-18T04:40:57.054Z,84.89
2022-11-18T04:42:02.786Z,85.08
2022-11-18T04:43:08.527Z,85.31
2022-11-18T04:44:12.723Z,85.06
2022-11-18T04:45:18.059Z,85.51
2022-11-18T04:46:22.172Z,85.91
2022-11-18T04:47:31.174Z,85.80
2022-11-18T04:48:36.933Z,85.89
2022-11-18T04:49:40.918Z,86.21
2022-11-18T04:50:45.121Z,86.12
2022-11-18T04:51:49.464Z,86.02
2022-11-18T04:52:55.248Z,84.68
2022-11-18T04:55:28.247Z,84.87
2022-11-18T04:56:45.667Z,85.55
2022-11-18T04:57:47.324Z,85.67
2022-11-18T04:58:48.300Z,85.90
2022-11-18T04:59:54.055Z,86.10
2022-11-18T05:00:59.569Z,86.26
2022-11-18T05:02:18.882Z,86.23
2022-11-18T05:03:15.000Z,86.07
2022-11-18T05:04:25.793Z,86.01
2022-11-18T05:05:32.725Z,86.29
2022-11-18T05:06:45.244Z,86.39
2022-11-18T05:07:46.069Z,86.58
2022-11-18T05:08:50.256Z,86.45
2022-11-18T05:09:54.353Z,87.00
2022-11-18T05:10:58.498Z,87.00
2022-11-18T05:12:02.679Z,86.47
2022-11-18T05:13:12.330Z,86.24
2022-11-18T05:18:43.982Z,86.24
2022-11-18T05:20:40.271Z,86.20
2022-11-18T05:20:58.119Z,86.26
2022-11-18T05:22:02.068Z,86.26
2022-11-18T05:23:09.031Z,87.07
2022-11-18T05:24:13.003Z,87.07
2022-11-18T05:25:21.228Z,87.48
2022-11-18T05:26:27.294Z,86.90
2022-11-18T05:27:33.956Z,86.90
2022-11-18T05:28:38.846Z,86.68
2022-11-18T05:29:43.007Z,86.07
2022-11-18T05:30:47.100Z,86.19
2022-11-18T05:31:55.909Z,85.21
2022-11-18T05:33:02.938Z,85.14
2022-11-18T05:34:18.603Z,85.10
2022-11-18T05:35:12.112Z,84.98
2022-11-18T05:36:18.558Z,84.98
2022-11-18T05:37:25.666Z,85.18
2022-11-18T05:38:33.673Z,85.40
2022-11-18T05:39:37.926Z,85.11
2022-11-18T05:40:50.061Z,84.88
2022-11-18T05:41:58.394Z,85.46
2022-11-18T05:43:04.479Z,84.67
2022-11-18T05:44:17.167Z,85.05
2022-11-18T05:45:20.288Z,85.05
2022-11-18T05:46:36.135Z,85.46
2022-11-18T05:47:32.545Z,85.37
2022-11-18T05:48:39.734Z,85.42
2022-11-18T05:49:42.432Z,85.42
2022-11-18T05:50:51.822Z,85.25
2022-11-18T05:52:04.532Z,84.80
2022-11-18T05:53:09.391Z,85.57
2022-11-18T05:54:16.107Z,85.71
2022-11-18T05:55:25.031Z,84.91
2022-11-18T05:56:33.960Z,85.30
2022-11-18T05:57:38.014Z,85.01
2022-11-18T05:58:43.795Z,84.67
2022-11-18T05:59:57.041Z,84.67
2022-11-18T06:01:00.464Z,84.26
2022-11-18T06:02:07.666Z,84.76
2022-11-18T06:03:14.883Z,84.66
2022-11-18T06:04:39.823Z,84.69
2022-11-18T06:05:44.010Z,84.50
2022-11-18T06:06:52.450Z,84.56
2022-11-18T06:07:58.536Z,85.33
2022-11-18T06:10:20.554Z,84.78
2022-11-18T06:11:26.377Z,85.10
2022-11-18T06:12:33.548Z,85.38
2022-11-18T06:13:43.294Z,84.97
2022-11-18T06:14:55.990Z,85.07
2022-11-18T06:16:02.191Z,85.28
2022-11-18T06:17:14.822Z,85.53
2022-11-18T06:18:26.625Z,85.77
2022-11-18T06:19:32.690Z,85.56
2022-11-18T06:20:43.310Z,85.10
2022-11-18T06:21:49.327Z,84.68
2022-11-18T06:22:56.127Z,84.45
2022-11-18T06:24:02.209Z,84.63
2022-11-18T06:25:09.397Z,84.30
2022-11-18T06:26:32.303Z,83.71
2022-11-18T06:27:25.024Z,83.71
2022-11-18T06:28:30.501Z,83.68
2022-11-18T06:29:37.690Z,83.42
2022-11-18T06:30:42.094Z,83.12
2022-11-18T06:31:50.121Z,83.45
2022-11-18T06:32:54.234Z,83.39
2022-11-18T06:33:59.911Z,83.12
2022-11-18T06:35:18.867Z,84.23
2022-11-18T06:36:10.368Z,84.65
2022-11-18T06:37:16.552Z,84.13
2022-11-18T06:38:27.184Z,83.92
2022-11-18T06:39:28.114Z,84.35
2022-11-18T06:40:34.922Z,84.46
2022-11-18T06:41:37.862Z,84.34
2022-11-18T06:42:41.939Z,85.32
2022-11-18T06:43:46.079Z,84.74
2022-11-18T06:44:50.151Z,84.56
2022-11-18T06:45:57.579Z,84.30
2022-11-18T06:47:06.874Z,84.30
2022-11-18T06:48:13.731Z,84.68
2022-11-18T06:49:20.193Z,85.05
2022-11-18T06:50:33.839Z,84.96
2022-11-18T06:51:36.270Z,84.69
2022-11-18T06:52:45.204Z,84.92
2022-11-18T06:53:52.137Z,85.31
2022-11-18T06:54:57.985Z,85.13
2022-11-18T06:56:10.451Z,84.47
2022-11-18T06:57:21.505Z,85.16
2022-11-18T06:58:23.268Z,85.64
2022-11-18T06:59:36.595Z,85.23
2022-11-18T07:00:45.065Z,84.27
2022-11-18T07:01:54.066Z,83.77
2022-11-18T07:02:59.694Z,83.71
2022-11-18T07:04:06.107Z,84.09
2022-11-18T07:05:16.788Z,84.09
2022-11-18T07:06:23.801Z,84.22
2022-11-18T07:07:29.796Z,84.71
2022-11-18T07:08:43.906Z,85.04
2022-11-18T07:09:47.286Z,84.91
2022-11-18T07:10:56.808Z,85.03
2022-11-18T07:12:33.570Z,84.17
2022-11-18T07:13:12.899Z,83.48
2022-11-18T07:14:20.623Z,84.38
2022-11-18T07:15:49.945Z,82.85
2022-11-18T07:16:31.689Z,83.01
2022-11-18T07:17:50.749Z,83.17
2022-11-18T07:18:56.258Z,83.72
2022-11-18T07:20:03.661Z,83.69
2022-11-18T07:21:13.563Z,83.79
2022-11-18T07:22:19.323Z,83.81
2022-11-18T07:23:26.973Z,83.83
2022-11-18T07:24:34.898Z,83.83
2022-11-18T07:26:05.860Z,83.89
2022-11-18T07:26:48.090Z,83.96
2022-11-18T07:27:52.292Z,84.38
2022-11-18T07:29:04.519Z,84.06
2022-11-18T07:30:08.609Z,84.06
2022-11-18T07:31:17.301Z,84.20
2022-11-18T07:32:27.358Z,84.06
2022-11-18T07:33:52.187Z,83.32
2022-11-18T07:34:56.089Z,82.84
2022-11-18T07:36:09.647Z,82.77
2022-11-18T07:37:15.702Z,82.32
2022-11-18T07:38:22.934Z,82.29
2022-11-18T07:39:31.427Z,81.83
2022-11-18T07:40:37.099Z,81.79
2022-11-18T07:41:46.582Z,82.34
2022-11-18T07:42:52.220Z,81.82
2022-11-18T07:44:01.373Z,81.82
2022-11-18T07:45:06.393Z,80.83
2022-11-18T07:46:23.184Z,80.61
2022-11-18T07:47:29.993Z,80.33
2022-11-18T07:49:01.599Z,80.70
2022-11-18T07:49:47.099Z,80.91
2022-11-18T07:50:50.362Z,81.09
2022-11-18T07:51:57.453Z,81.38
2022-11-18T07:53:06.280Z,80.92
2022-11-18T07:54:28.371Z,81.74
2022-11-18T07:56:37.024Z,80.45
2022-11-18T07:57:45.336Z,80.45
2022-11-18T07:58:58.342Z,80.34
2022-11-18T08:00:06.553Z,80.39
2022-11-18T08:02:54.386Z,80.75
2022-11-18T08:04:14.143Z,80.19
2022-11-18T08:05:17.950Z,80.21
2022-11-18T08:06:22.093Z,80.68
2022-11-18T08:07:26.287Z,80.37
2022-11-18T08:08:30.765Z,80.77
2022-11-18T08:09:36.477Z,80.89
2022-11-18T08:10:42.189Z,80.77
2022-11-18T08:11:47.958Z,80.49
2022-11-18T08:12:52.119Z,80.75
2022-11-18T08:13:57.818Z,80.75
2022-11-18T08:15:13.077Z,79.89
2022-11-18T08:16:13.579Z,80.26
2022-11-18T08:17:17.691Z,80.58
2022-11-18T08:18:22.180Z,80.11
2022-11-18T08:19:26.339Z,80.11
2022-11-18T08:20:33.518Z,80.25
2022-11-18T08:21:40.458Z,80.06
2022-11-18T08:22:44.564Z,80.06
2022-11-18T08:23:54.014Z,80.29
2022-11-18T08:24:58.089Z,79.79
2022-11-18T08:26:15.785Z,78.34
2022-11-18T08:27:21.454Z,78.11
2022-11-18T08:28:25.537Z,78.31
2022-11-18T08:29:29.888Z,78.29
2022-11-18T08:30:36.412Z,78.38
2022-11-18T08:31:43.383Z,78.60
2022-11-18T08:32:49.387Z,78.60
2022-11-18T08:34:05.234Z,78.28
2022-11-18T08:35:18.085Z,78.67
2022-11-18T08:36:23.968Z,78.78
2022-11-18T08:37:29.542Z,78.60
2022-11-18T08:38:42.640Z,77.87
2022-11-18T08:39:58.868Z,77.57
2022-11-18T08:41:11.252Z,78.07
2022-11-18T08:42:12.091Z,78.07
2022-11-18T08:43:18.497Z,77.63
2022-11-18T08:44:24.312Z,77.64
2022-11-18T08:45:30.014Z,77.32
2022-11-18T08:46:42.725Z,77.63
2022-11-18T08:47:43.075Z,77.71
2022-11-18T08:48:53.076Z,78.45
2022-11-18T08:52:26.215Z,79.15
2022-11-18T08:53:31.833Z,79.37
2022-11-18T08:54:36.195Z,79.32
2022-11-18T08:55:47.395Z,78.25
2022-11-18T08:56:51.371Z,78.25
2022-11-18T08:58:00.340Z,78.37
2022-11-18T08:59:03.110Z,78.89
2022-11-18T09:00:09.172Z,78.95
2022-11-18T09:01:14.930Z,78.73
2022-11-18T09:02:22.278Z,78.94
2022-11-18T09:03:27.402Z,78.94
2022-11-18T09:04:32.978Z,78.50
2022-11-18T09:05:38.750Z,78.79
2022-11-18T09:06:44.203Z,79.25
2022-11-18T09:07:56.075Z,79.48
2022-11-18T09:09:13.570Z,79.48
2022-11-18T09:10:08.045Z,79.96
2022-11-18T09:11:16.178Z,79.99
2022-11-18T09:12:20.115Z,80.02
2022-11-18T09:15:38.864Z,79.30
2022-11-18T09:16:48.830Z,79.30
2022-11-18T09:17:54.487Z,78.60
2022-11-18T09:19:08.501Z,79.10
2022-11-18T09:20:06.949Z,79.10
2022-11-18T09:21:12.631Z,79.24
2022-11-18T09:22:19.668Z,79.24
2022-11-18T09:24:30.507Z,80.64
2022-11-18T09:24:34.845Z,81.07
2022-11-18T09:25:40.338Z,80.07
2022-11-18T09:26:47.373Z,79.78
2022-11-18T09:27:51.375Z,79.23
2022-11-18T09:28:55.420Z,79.39
2022-11-18T09:30:01.012Z,79.93
2022-11-18T09:31:07.020Z,79.75
2022-11-18T09:32:13.683Z,78.28
2022-11-18T09:33:20.637Z,78.87
2022-11-18T09:34:28.087Z,79.27
2022-11-18T09:35:32.053Z,79.19
2022-11-18T09:36:36.061Z,79.32
2022-11-18T09:37:40.084Z,79.32
2022-11-18T09:38:48.596Z,79.62
2022-11-18T09:39:51.573Z,79.28
2022-11-18T09:41:07.316Z,79.58
2022-11-18T09:42:17.006Z,79.51
2022-11-18T09:43:29.908Z,79.94
2022-11-18T09:44:53.097Z,79.62
2022-11-18T09:46:08.875Z,78.79
2022-11-18T09:47:27.845Z,78.69
2022-11-18T09:48:34.011Z,78.52
2022-11-18T09:49:45.333Z,78.49
2022-11-18T09:50:50.645Z,78.43
2022-11-18T09:51:56.491Z,78.43
2022-11-18T09:53:23.431Z,79.96
2022-11-18T09:54:41.291Z,78.98
2022-11-18T09:55:59.030Z,78.86
2022-11-18T09:57:08.522Z,78.42
2022-11-18T09:58:00.875Z,77.93
2022-11-18T09:59:25.028Z,78.71
2022-11-18T10:00:27.611Z,79.51
2022-11-18T10:01:30.613Z,78.99
2022-11-18T10:02:43.593Z,78.23
2022-11-18T10:05:16.701Z,78.41
2022-11-18T10:05:29.723Z,78.15
2022-11-18T10:06:30.148Z,78.10
2022-11-18T10:07:37.138Z,78.10
2022-11-18T10:08:49.933Z,78.10
2022-11-18T10:10:28.911Z,79.12
2022-11-18T10:11:16.986Z,78.76
2022-11-18T10:12:29.488Z,78.76
2022-11-18T10:13:52.755Z,78.43
2022-11-18T10:14:59.792Z,78.43
2022-11-18T10:16:29.250Z,79.19
2022-11-18T10:17:46.710Z,79.19
2022-11-18T10:19:03.522Z,78.81
2022-11-18T10:20:13.118Z,78.89
2022-11-18T10:21:29.316Z,79.69
2022-11-18T10:22:43.114Z,79.89
2022-11-18T10:23:54.450Z,79.09
2022-11-18T11:11:24.103Z,77.96
2022-11-18T11:12:44.655Z,78.50
2022-11-18T11:13:52.420Z,78.05
2022-11-18T11:15:00.480Z,78.41
2022-11-18T11:16:08.784Z,78.89
2022-11-18T11:17:47.999Z,79.04
2022-11-18T11:19:01.027Z,79.22
2022-11-18T11:20:21.535Z,78.76
2022-11-18T11:21:27.290Z,78.87
2022-11-18T11:22:40.736Z,78.81
2022-11-18T11:23:48.508Z,78.81
2022-11-18T11:30:17.262Z,79.22
2022-11-18T11:31:11.071Z,79.99
2022-11-18T11:31:43.774Z,79.57
2022-11-18T11:33:11.574Z,79.28
2022-11-18T11:34:38.194Z,79.70
2022-11-18T11:35:59.984Z,80.24
2022-11-18T11:37:26.014Z,80.23
2022-11-18T11:43:32.220Z,81.06
2022-11-18T11:44:58.451Z,81.10
2022-11-18T11:46:22.077Z,80.87
2022-11-18T11:47:36.076Z,81.08
2022-11-18T11:49:02.392Z,80.84
2022-11-18T11:50:24.397Z,81.63
2022-11-18T11:52:21.432Z,81.40
2022-11-18T11:55:25.587Z,81.77
2022-11-18T11:56:48.796Z,81.96
2022-11-18T11:59:55.412Z,82.40
2022-11-18T12:00:04.692Z,82.97
2022-11-18T12:00:23.585Z,81.62
2022-11-18T12:01:44.463Z,83.00
2022-11-18T12:03:08.081Z,83.09
2022-11-18T12:04:33.054Z,83.24
2022-11-18T12:05:41.086Z,83.24
2022-11-18T12:19:25.554Z,84.19
2022-11-18T12:20:39.503Z,84.38
2022-11-18T12:23:19.206Z,85.16
2022-11-18T12:27:47.871Z,85.37
2022-11-18T12:28:53.406Z,85.62
2022-11-18T12:30:04.174Z,85.86
2022-11-18T12:31:20.070Z,85.15
2022-11-18T12:32:41.543Z,85.05
2022-11-18T12:33:48.176Z,85.01
2022-11-18T12:34:58.162Z,85.43
2022-11-18T12:36:05.132Z,85.28
2022-11-18T12:37:25.928Z,85.62
2022-11-18T12:38:43.057Z,85.67
2022-11-18T12:39:43.329Z,85.75
2022-11-18T12:40:52.633Z,85.77
2022-11-18T12:42:05.273Z,85.67
2022-11-18T12:43:27.767Z,85.15
2022-11-18T12:44:31.971Z,85.57
2022-11-18T12:45:46.468Z,86.28
2022-11-18T12:46:52.105Z,86.58
2022-11-18T12:47:59.022Z,86.42
2022-11-18T12:49:25.659Z,86.38
2022-11-18T12:50:50.371Z,86.81
2022-11-18T12:51:59.454Z,87.16
2022-11-18T12:53:03.528Z,87.25
2022-11-18T12:54:16.266Z,87.23
2022-11-18T12:55:29.319Z,87.13
2022-11-18T12:56:36.315Z,86.84
2022-11-18T12:57:42.614Z,87.09
2022-11-18T12:58:52.552Z,87.19
2022-11-18T12:59:58.114Z,87.25
2022-11-18T13:01:08.191Z,87.25
2022-11-18T13:02:16.784Z,87.68
2022-11-18T13:03:27.318Z,87.91
2022-11-18T13:04:32.662Z,88.02
2022-11-18T13:05:38.307Z,88.47
2022-11-18T13:06:45.811Z,88.47
2022-11-18T13:07:58.504Z,88.37
2022-11-18T13:09:12.345Z,88.92
2022-11-18T13:10:26.374Z,88.83
2022-11-18T13:11:37.686Z,88.33
2022-11-18T13:12:42.574Z,88.26
2022-11-18T13:13:52.466Z,88.75
2022-11-18T13:14:57.633Z,88.89
2022-11-18T13:16:09.704Z,88.99
2022-11-18T13:17:32.188Z,89.32
2022-11-18T13:18:40.413Z,89.71
2022-11-18T13:19:59.457Z,89.95
2022-11-18T13:21:03.439Z,89.97
2022-11-18T13:22:13.558Z,90.11
2022-11-18T13:23:26.429Z,90.02
2022-11-18T13:24:31.927Z,90.02
2022-11-18T13:25:42.521Z,90.50
2022-11-18T13:26:46.037Z,90.50
2022-11-18T13:28:06.574Z,90.59
2022-11-18T13:29:22.372Z,90.50
2022-11-18T13:30:28.046Z,90.67
2022-11-18T13:31:54.830Z,90.84
2022-11-18T13:33:07.036Z,90.84
2022-11-18T13:34:22.095Z,91.27
2022-11-18T13:35:27.327Z,91.30
2022-11-18T13:36:33.404Z,91.30
2022-11-18T13:37:38.938Z,91.69
2022-11-18T13:38:45.955Z,91.92
2022-11-18T13:39:55.030Z,92.26
2022-11-18T13:41:19.727Z,92.75
2022-11-18T13:44:13.220Z,92.59
2022-11-18T13:44:15.267Z,92.75
2022-11-18T13:47:15.419Z,92.58
2022-11-18T13:47:39.698Z,92.80
2022-11-18T14:10:45.128Z,94.92
2022-11-18T14:12:07.773Z,95.47
2022-11-18T14:13:22.046Z,95.20
2022-11-18T14:14:32.559Z,94.97
2022-11-18T14:15:43.285Z,95.34
2022-11-18T14:16:43.491Z,95.15
2022-11-18T14:17:52.979Z,95.59
2022-11-18T14:18:58.259Z,95.20
2022-11-18T14:20:05.231Z,94.97
2022-11-18T14:21:11.940Z,94.61
2022-11-18T14:22:20.879Z,95.17
2022-11-18T14:23:36.906Z,95.17
2022-11-18T14:24:41.828Z,94.64
2022-11-18T14:25:46.153Z,94.83
2022-11-18T14:26:54.314Z,95.06
2022-11-18T14:28:15.320Z,95.06
2022-11-18T14:29:21.144Z,94.94
2022-11-18T14:30:48.266Z,94.94
2022-11-18T14:32:14.783Z,95.32
2022-11-18T14:33:21.877Z,95.89
2022-11-18T14:34:27.549Z,95.81
2022-11-18T14:35:34.660Z,95.64
2022-11-18T14:36:37.347Z,95.85
2022-11-18T14:37:45.460Z,95.85
2022-11-18T14:39:11.717Z,96.18
2022-11-18T14:40:01.869Z,96.31
2022-11-18T14:41:08.423Z,96.08
2022-11-18T14:42:13.749Z,95.99
2022-11-18T14:43:20.943Z,95.71
2022-11-18T14:44:34.691Z,95.79
2022-11-18T14:45:35.188Z,95.94
2022-11-18T14:46:43.560Z,96.28
2022-11-18T14:49:02.963Z,96.42
2022-11-18T14:50:16.158Z,96.64
2022-11-18T14:51:12.514Z,96.30
2022-11-18T14:51:25.489Z,96.64
2022-11-18T14:52:31.042Z,96.39
2022-11-18T14:53:36.579Z,95.92
2022-11-18T14:54:42.243Z,95.93
2022-11-18T14:55:52.297Z,95.72
2022-11-18T14:57:02.485Z,95.93
2022-11-18T14:58:11.173Z,95.74
2022-11-18T14:59:19.020Z,96.02
2022-11-18T15:00:24.719Z,96.08
2022-11-18T15:01:33.121Z,96.30
2022-11-18T15:02:38.824Z,96.11
2022-11-18T15:03:47.539Z,95.99
2022-11-18T15:04:50.362Z,95.85
2022-11-18T15:06:01.546Z,96.09
2022-11-18T15:07:07.416Z,96.20
2022-11-18T15:08:13.836Z,95.96
2022-11-18T15:11:12.429Z,95.62
2022-11-18T15:12:16.865Z,95.62
2022-11-18T15:13:22.564Z,95.62
2022-11-18T15:14:24.857Z,95.83
2022-11-18T15:15:34.467Z,96.09
2022-11-18T15:16:40.166Z,96.23
2022-11-18T15:17:54.076Z,96.22
2022-11-18T15:19:01.646Z,96.07
2022-11-18T15:20:09.142Z,96.02
2022-11-18T15:21:16.162Z,96.01
2022-11-18T15:22:20.085Z,96.14
2022-11-18T15:23:29.539Z,95.99
2022-11-18T15:24:30.080Z,96.18
2022-11-18T15:26:55.631Z,96.26
2022-11-18T15:27:12.944Z,96.26
2022-11-18T15:27:53.789Z,96.13
2022-11-18T15:28:58.435Z,96.31
2022-11-18T15:30:04.152Z,96.30
2022-11-18T15:31:39.088Z,96.75
2022-11-18T15:32:21.606Z,96.97
2022-11-18T15:33:29.921Z,97.19
2022-11-18T15:34:35.471Z,97.33
2022-11-18T15:35:39.608Z,97.33
2022-11-18T15:37:56.440Z,96.95
2022-11-18T15:38:24.655Z,97.04
2022-11-18T15:39:03.650Z,97.23
2022-11-18T15:40:09.800Z,97.29
2022-11-18T15:41:22.778Z,97.17
2022-11-18T15:42:35.125Z,97.45
2022-11-18T15:44:10.846Z,97.63
2022-11-18T15:46:07.239Z,97.46
2022-11-18T15:47:24.624Z,98.01
2022-11-18T16:01:37.198Z,99.89
2022-11-18T16:02:45.062Z,99.50
2022-11-18T16:03:54.223Z,99.83
2022-11-18T16:05:01.195Z,100.00
2022-11-18T16:06:19.464Z,100.00
2022-11-18T16:07:28.474Z,99.49
2022-11-18T16:09:21.671Z,99.59
2022-11-18T16:09:47.637Z,99.88
2022-11-18T16:11:04.271Z,100.00
2022-11-18T16:12:11.809Z,100.00
2022-11-18T16:13:16.132Z,99.95
2022-11-18T16:14:24.096Z,100.00
2022-11-18T16:15:35.495Z,100.00
2022-11-18T16:16:36.925Z,100.00
2022-11-18T16:17:48.903Z,99.81
2022-11-18T16:18:57.739Z,100.00
2022-11-18T16:20:23.718Z,100.00
2022-11-18T16:21:09.489Z,100.00
2022-11-18T16:22:23.818Z,100.00
2022-11-18T16:23:36.999Z,100.00
2022-11-18T16:24:48.241Z,100.00
2022-11-18T16:25:55.752Z,100.00
2022-11-18T16:27:20.754Z,100.00
2022-11-18T16:28:16.670Z,100.00
2022-11-18T16:29:21.458Z,100.00
2022-11-18T16:30:54.154Z,100.00
2022-11-18T16:34:35.652Z,100.00
2022-11-18T16:35:42.853Z,100.00
2022-11-18T16:37:19.323Z,100.00
2022-11-18T16:38:01.917Z,100.00
2022-11-18T16:39:17.273Z,100.00
2022-11-18T16:40:34.288Z,100.00
2022-11-18T16:41:44.072Z,100.00
2022-11-18T17:06:09.123Z,99.24
2022-11-18T17:07:20.292Z,99.30
2022-11-18T17:08:25.936Z,98.55
2022-11-18T17:10:06.474Z,98.71
2022-11-18T17:12:21.305Z,98.35
2022-11-18T17:13:25.265Z,98.35
2022-11-18T17:14:32.431Z,98.38
2022-11-18T17:28:57.208Z,100.00
2022-11-18T17:31:12.674Z,100.00
2022-11-18T17:31:40.731Z,100.00
2022-11-18T17:34:31.138Z,100.00
2022-11-18T17:34:35.988Z,100.00
2022-11-18T17:50:09.279Z,100.00
2022-11-18T17:51:13.049Z,100.00
2022-11-18T17:52:18.512Z,100.00
2022-11-18T17:53:40.065Z,100.00
2022-11-18T17:54:46.655Z,100.00
2022-11-18T17:56:05.505Z,100.00
2022-11-18T17:57:01.668Z,100.00
2022-11-18T17:58:08.965Z,100.00
2022-11-18T17:59:11.645Z,100.00
2022-11-18T18:00:16.133Z,100.00
2022-11-18T18:01:27.343Z,100.00
2022-11-18T18:02:34.053Z,100.00
2022-11-18T18:03:39.730Z,100.00
2022-11-18T18:04:45.432Z,100.00
2022-11-18T18:05:50.943Z,100.00
2022-11-18T18:06:55.530Z,100.00
2022-11-18T18:08:00.129Z,100.00
2022-11-18T18:09:04.952Z,100.00
2022-11-18T18:10:10.700Z,100.00
2022-11-18T18:11:19.263Z,100.00
2022-11-18T18:12:23.439Z,100.00
2022-11-18T18:13:29.207Z,100.00
2022-11-18T18:14:34.402Z,100.00
2022-11-18T18:15:51.193Z,100.00
2022-11-18T18:16:48.044Z,100.00
2022-11-18T18:17:54.135Z,100.00
2022-11-18T18:18:59.875Z,100.00
2022-11-18T18:20:04.150Z,100.00
2022-11-18T18:21:12.871Z,100.00
2022-11-18T18:27:33.760Z,100.00
2022-11-18T18:28:38.137Z,100.00
2022-11-18T18:29:44.050Z,100.00
2022-11-18T18:31:53.589Z,100.00